createdAt,value
2023-03-21T00:00:23.014Z,6.57
2023-03-21T00:02:52.113Z,8.18
2023-03-21T00:05:22.761Z,7.65
2023-03-21T00:07:51.337Z,7.22
2023-03-21T00:10:37.153Z,9.60
2023-03-21T00:13:06.979Z,5.68
2023-03-21T00:16:05.154Z,7.25
2023-03-21T00:18:45.579Z,7.75
2023-03-21T00:21:46.526Z,7.60
2023-03-21T00:24:08.723Z,6.78
2023-03-21T00:26:43.688Z,6.32
2023-03-21T00:29:16.481Z,7.85
2023-03-21T00:34:36.487Z,11.10
2023-03-21T00:37:17.059Z,8.25
2023-03-21T00:39:49.057Z,9.82
2023-03-21T00:42:17.328Z,6.95
2023-03-21T00:44:47.677Z,8.18
2023-03-21T00:47:21.001Z,6.80
2023-03-21T00:49:51.686Z,10.52
2023-03-21T00:54:59.336Z,9.77
2023-03-21T00:57:38.114Z,7.95
2023-03-21T01:00:08.072Z,8.23
2023-03-21T01:02:38.299Z,6.53
2023-03-21T01:05:06.290Z,8.27
2023-03-21T01:07:37.180Z,8.13
2023-03-21T01:10:04.860Z,6.85
2023-03-21T01:12:31.978Z,7.40
2023-03-21T01:15:00.252Z,9.57
2023-03-21T01:17:28.483Z,9.30
2023-03-21T01:20:01.092Z,5.00
2023-03-21T01:22:27.945Z,11.68
2023-03-21T01:25:12.151Z,10.10
2023-03-21T01:27:50.888Z,10.85
2023-03-21T01:30:22.863Z,7.40
2023-03-21T01:32:58.111Z,9.63
2023-03-21T01:35:37.493Z,10.93
2023-03-21T01:38:11.018Z,7.85
2023-03-21T01:40:41.794Z,10.40
2023-03-21T01:43:30.030Z,7.57
2023-03-21T01:46:23.179Z,8.25
2023-03-21T01:49:14.856Z,7.80
2023-03-21T01:51:48.890Z,7.68
2023-03-21T01:54:26.525Z,8.98
2023-03-21T01:56:56.497Z,11.38
2023-03-21T01:59:41.546Z,9.02
2023-03-21T02:02:14.064Z,12.57
2023-03-21T02:04:51.132Z,10.25
2023-03-21T02:07:38.419Z,9.05
2023-03-21T02:10:13.986Z,10.00
2023-03-21T02:12:43.425Z,8.48
2023-03-21T02:15:19.728Z,6.50
2023-03-21T02:18:12.024Z,9.63
2023-03-21T02:21:32.026Z,8.90
2023-03-21T02:24:11.933Z,10.77
2023-03-21T02:27:03.685Z,9.00
2023-03-21T02:33:09.651Z,10.35
2023-03-21T02:36:13.578Z,7.43
2023-03-21T02:38:47.563Z,11.38
2023-03-21T02:41:40.040Z,9.73
2023-03-21T02:44:20.724Z,6.82
2023-03-21T02:47:04.662Z,11.45
2023-03-21T02:49:54.919Z,8.45
2023-03-21T02:52:41.205Z,8.70
2023-03-21T02:55:22.826Z,8.32
2023-03-21T03:00:33.770Z,11.00
2023-03-21T03:03:09.242Z,11.50
2023-03-21T03:05:55.219Z,8.70
2023-03-21T03:09:01.769Z,9.60
2023-03-21T03:11:42.429Z,9.25
2023-03-21T03:14:46.791Z,7.88
2023-03-21T03:17:22.709Z,11.25
2023-03-21T03:20:25.262Z,10.93
2023-03-21T03:23:25.155Z,7.60
2023-03-21T03:26:05.772Z,11.32
2023-03-21T03:28:39.174Z,9.93
2023-03-21T03:31:10.223Z,9.05
2023-03-21T03:36:32.370Z,10.73
2023-03-21T03:39:07.352Z,8.90
2023-03-21T03:42:04.166Z,8.57
2023-03-21T03:44:32.672Z,11.90
2023-03-21T03:47:31.742Z,10.23
2023-03-21T03:52:55.597Z,9.57
2023-03-21T03:55:27.508Z,9.65
2023-03-21T03:57:55.708Z,9.10
2023-03-21T04:00:22.752Z,8.68
2023-03-21T04:02:50.194Z,8.50
2023-03-21T04:05:21.870Z,8.35
2023-03-21T04:08:00.208Z,12.75
2023-03-21T04:10:29.435Z,8.23
2023-03-21T04:12:59.182Z,8.85
2023-03-21T04:15:26.176Z,10.77
2023-03-21T04:17:54.115Z,11.25
2023-03-21T04:20:35.629Z,11.65
2023-03-21T04:23:09.117Z,8.07
2023-03-21T04:25:42.294Z,10.07
2023-03-21T04:28:31.055Z,10.60
2023-03-21T04:31:11.108Z,10.77
2023-03-21T04:33:50.801Z,7.70
2023-03-21T04:36:27.878Z,10.80
2023-03-21T04:39:02.862Z,11.82
2023-03-21T04:41:31.281Z,9.68
2023-03-21T04:43:58.239Z,11.35
2023-03-21T04:46:25.202Z,10.25
2023-03-21T04:48:59.698Z,8.60
2023-03-21T04:51:30.900Z,12.23
2023-03-21T04:53:57.880Z,9.77
2023-03-21T04:56:36.496Z,12.13
2023-03-21T04:59:09.199Z,12.70
2023-03-21T05:01:36.086Z,13.00
2023-03-21T05:04:04.739Z,13.45
2023-03-21T05:06:34.875Z,9.63
2023-03-21T05:09:04.141Z,10.23
2023-03-21T05:11:32.217Z,10.05
2023-03-21T05:14:02.431Z,9.20
2023-03-21T05:16:31.669Z,11.98
2023-03-21T05:19:04.711Z,11.25
2023-03-21T05:21:49.831Z,11.77
2023-03-21T05:24:20.639Z,9.80
2023-03-21T05:26:52.932Z,12.10
2023-03-21T05:29:19.979Z,11.68
2023-03-21T05:31:48.245Z,15.07
2023-03-21T05:34:14.898Z,9.70
2023-03-21T05:36:44.632Z,16.05
2023-03-21T05:39:12.296Z,12.45
2023-03-21T05:41:41.445Z,13.95
2023-03-21T05:44:18.528Z,16.40
2023-03-21T05:46:45.603Z,15.52
2023-03-21T05:49:13.537Z,13.00
2023-03-21T05:51:45.255Z,16.80
2023-03-21T05:54:18.623Z,12.75
2023-03-21T05:56:51.511Z,11.95
2023-03-21T05:59:18.565Z,10.57
2023-03-21T06:01:57.069Z,12.57
2023-03-21T06:04:24.823Z,14.00
2023-03-21T06:06:53.622Z,12.02
2023-03-21T06:09:22.166Z,12.18
2023-03-21T06:11:51.647Z,15.50
2023-03-21T06:14:30.683Z,11.32
2023-03-21T06:16:58.802Z,12.40
2023-03-21T06:19:26.571Z,13.95
2023-03-21T06:21:56.495Z,14.10
2023-03-21T06:24:24.592Z,12.00
2023-03-21T06:26:51.494Z,14.05
2023-03-21T06:29:18.207Z,15.18
2023-03-21T06:31:45.255Z,13.30
2023-03-21T06:34:11.928Z,13.95
2023-03-21T06:36:39.393Z,13.25
2023-03-21T06:39:09.353Z,12.18
2023-03-21T06:41:36.373Z,13.63
2023-03-21T06:44:05.678Z,14.52
2023-03-21T06:46:32.791Z,13.13
2023-03-21T06:49:07.667Z,13.40
2023-03-21T06:51:37.090Z,13.50
2023-03-21T06:54:06.256Z,14.90
2023-03-21T06:56:32.826Z,11.30
2023-03-21T06:59:02.165Z,10.77
2023-03-21T07:01:31.516Z,8.43
2023-03-21T07:03:59.711Z,12.90
2023-03-21T07:06:28.766Z,12.05
2023-03-21T07:08:56.413Z,15.15
2023-03-21T07:11:24.576Z,13.07
2023-03-21T07:13:54.586Z,14.82
2023-03-21T07:16:23.168Z,12.33
2023-03-21T07:18:51.367Z,12.10
2023-03-21T07:21:21.018Z,14.32
2023-03-21T07:23:54.298Z,12.27
2023-03-21T07:26:32.927Z,13.23
2023-03-21T07:29:00.250Z,13.93
2023-03-21T07:31:36.846Z,17.23
2023-03-21T07:34:07.883Z,12.93
2023-03-21T07:36:35.520Z,15.48
2023-03-21T07:39:05.335Z,12.68
2023-03-21T07:41:37.576Z,12.80
2023-03-21T07:44:08.916Z,12.90
2023-03-21T07:46:38.103Z,13.35
2023-03-21T07:49:14.115Z,12.30
2023-03-21T07:51:50.245Z,11.20
2023-03-21T07:54:23.691Z,14.98
2023-03-21T07:57:02.141Z,13.52
2023-03-21T07:59:29.722Z,13.35
2023-03-21T08:02:00.270Z,13.20
2023-03-21T08:07:55.645Z,12.75
2023-03-21T08:10:29.593Z,13.32
2023-03-21T08:13:00.726Z,12.68
2023-03-21T08:18:12.184Z,16.70
2023-03-21T08:20:45.032Z,31.60
2023-03-21T08:23:14.640Z,12.68
2023-03-21T08:25:45.734Z,12.40
2023-03-21T08:28:15.542Z,13.57
2023-03-21T08:30:49.953Z,12.65
2023-03-21T08:33:19.381Z,12.80
2023-03-21T08:35:48.727Z,15.55
2023-03-21T08:38:15.660Z,11.70
2023-03-21T08:40:45.852Z,14.75
2023-03-21T08:43:14.691Z,15.75
2023-03-21T08:45:41.708Z,14.32
2023-03-21T08:48:14.352Z,12.27
2023-03-21T08:51:32.372Z,12.27
2023-03-21T08:53:59.555Z,14.63
2023-03-21T08:56:30.163Z,13.65
2023-03-21T08:58:59.602Z,12.20
2023-03-21T09:01:27.155Z,14.15
2023-03-21T09:03:56.460Z,11.45
2023-03-21T09:06:25.143Z,11.15
2023-03-21T09:08:57.099Z,11.85
2023-03-21T09:11:23.873Z,15.05
2023-03-21T09:13:51.912Z,13.73
2023-03-21T09:16:18.756Z,12.10
2023-03-21T09:18:49.554Z,14.00
2023-03-21T09:21:20.614Z,13.60
2023-03-21T09:24:01.031Z,10.60
2023-03-21T09:29:01.420Z,14.73
2023-03-21T09:31:30.521Z,14.57
2023-03-21T09:34:00.924Z,16.00
2023-03-21T09:36:31.929Z,14.95
2023-03-21T09:39:03.644Z,13.65
2023-03-21T09:42:17.363Z,13.77
2023-03-21T09:45:32.129Z,14.70
2023-03-21T09:48:06.586Z,13.10
2023-03-21T09:50:42.282Z,10.75
2023-03-21T09:53:25.837Z,13.52
2023-03-21T09:55:54.176Z,14.30
2023-03-21T09:58:33.482Z,12.13
2023-03-21T10:01:13.193Z,17.55
2023-03-21T10:03:42.301Z,14.87
2023-03-21T10:06:17.102Z,14.23
2023-03-21T10:11:52.695Z,10.57
2023-03-21T10:14:25.577Z,14.43
2023-03-21T10:17:28.548Z,12.80
2023-03-21T10:20:12.488Z,11.80
2023-03-21T10:22:39.478Z,12.25
2023-03-21T10:25:13.740Z,15.55
2023-03-21T10:27:41.318Z,12.05
2023-03-21T10:30:14.702Z,14.25
2023-03-21T10:32:44.583Z,12.20
2023-03-21T10:35:15.679Z,12.13
2023-03-21T10:37:48.468Z,10.38
2023-03-21T10:40:18.149Z,12.55
2023-03-21T10:42:46.448Z,10.60
2023-03-21T10:45:22.581Z,12.50
2023-03-21T10:47:53.690Z,11.85
2023-03-21T10:50:28.607Z,11.27
2023-03-21T10:53:01.185Z,13.90
2023-03-21T10:55:37.616Z,11.35
2023-03-21T10:58:11.243Z,14.43
2023-03-21T11:00:48.728Z,13.40
2023-03-21T11:03:32.612Z,12.95
2023-03-21T11:06:10.245Z,16.45
2023-03-21T11:08:46.419Z,15.35
2023-03-21T11:11:28.400Z,13.75
2023-03-21T11:14:04.392Z,13.65
2023-03-21T11:16:33.851Z,19.13
2023-03-21T11:19:04.089Z,16.20
2023-03-21T11:21:37.316Z,18.08
2023-03-21T11:24:07.605Z,21.98
2023-03-21T11:26:38.481Z,15.25
2023-03-21T11:29:27.772Z,16.83
2023-03-21T11:32:36.466Z,15.20
2023-03-21T11:35:28.180Z,19.45
2023-03-21T11:37:56.480Z,16.38
2023-03-21T11:40:34.997Z,15.88
2023-03-21T11:43:04.909Z,14.05
2023-03-21T11:45:40.899Z,13.77
2023-03-21T11:51:03.948Z,15.23
2023-03-21T11:53:40.778Z,16.35
2023-03-21T11:56:23.570Z,13.63
2023-03-21T11:59:16.511Z,15.45
2023-03-21T12:02:01.189Z,14.15
2023-03-21T12:04:43.238Z,17.05
2023-03-21T12:07:47.653Z,18.33
2023-03-21T12:10:42.470Z,14.57
2023-03-21T12:13:57.951Z,17.40
2023-03-21T12:16:49.264Z,16.63
2023-03-21T12:19:53.425Z,17.38
2023-03-21T12:23:10.061Z,20.85
2023-03-21T12:26:12.125Z,17.20
2023-03-21T12:28:59.510Z,18.33
2023-03-21T12:35:20.848Z,18.98
2023-03-21T12:38:14.971Z,17.88
2023-03-21T12:41:08.580Z,23.58
2023-03-21T12:43:49.025Z,17.30
2023-03-21T12:49:23.931Z,20.93
2023-03-21T12:51:57.628Z,17.90
2023-03-21T12:54:47.108Z,19.33
2023-03-21T12:57:38.347Z,19.75
2023-03-21T13:00:23.189Z,16.73
2023-03-21T13:02:56.192Z,15.60
2023-03-21T13:08:47.000Z,21.45
2023-03-21T13:11:19.926Z,17.83
2023-03-21T13:14:02.941Z,17.77
2023-03-21T13:17:04.731Z,14.23
2023-03-21T13:19:55.458Z,12.35
2023-03-21T13:28:07.376Z,13.75
2023-03-21T13:30:36.547Z,12.18
2023-03-21T13:33:19.812Z,15.40
2023-03-21T13:36:32.066Z,16.55
2023-03-21T13:39:08.118Z,15.40
2023-03-21T13:41:49.682Z,13.90
2023-03-21T13:44:35.009Z,15.60
2023-03-21T13:47:34.744Z,14.15
2023-03-21T13:53:02.840Z,16.58
2023-03-21T14:02:36.654Z,17.50
2023-03-21T14:08:15.654Z,13.07
2023-03-21T14:10:54.272Z,15.88
2023-03-21T14:13:25.288Z,18.00
2023-03-21T14:16:09.081Z,13.65
2023-03-21T14:19:02.257Z,15.45
2023-03-21T14:21:32.882Z,17.33
2023-03-21T14:26:44.576Z,19.90
2023-03-21T14:29:31.871Z,17.35
2023-03-21T14:32:00.245Z,18.17
2023-03-21T14:34:31.706Z,16.23
2023-03-21T14:37:07.473Z,16.27
2023-03-21T14:39:36.587Z,13.18
2023-03-21T14:42:05.540Z,18.20
2023-03-21T14:44:53.873Z,14.35
2023-03-21T14:47:37.404Z,13.35
2023-03-21T14:50:06.754Z,13.45
2023-03-21T14:52:36.963Z,7.80
2023-03-21T14:55:20.185Z,12.30
2023-03-21T14:57:51.196Z,16.10
2023-03-21T15:03:16.649Z,12.68
2023-03-21T15:05:50.762Z,10.55
2023-03-21T15:08:29.718Z,13.43
2023-03-21T15:11:09.678Z,13.90
2023-03-21T15:13:51.899Z,14.20
2023-03-21T15:16:20.166Z,13.70
2023-03-21T15:18:47.965Z,12.25
2023-03-21T15:21:26.667Z,14.85
2023-03-21T15:24:04.397Z,12.55
2023-03-21T15:26:32.088Z,20.05
2023-03-21T15:29:03.422Z,13.50
2023-03-21T15:31:42.141Z,18.17
2023-03-21T15:34:21.167Z,13.95
2023-03-21T15:36:51.637Z,12.35
2023-03-21T15:39:21.520Z,14.77
2023-03-21T15:42:02.178Z,11.48
2023-03-21T15:46:57.565Z,14.00
2023-03-21T15:49:31.079Z,14.07
2023-03-21T15:52:15.595Z,11.52
2023-03-21T15:54:56.128Z,14.85
2023-03-21T15:57:30.823Z,16.92
2023-03-21T16:00:23.899Z,15.38
2023-03-21T16:03:04.826Z,17.10
2023-03-21T16:11:29.064Z,15.13
2023-03-21T16:14:01.005Z,16.13
2023-03-21T16:19:11.904Z,14.68
2023-03-21T16:21:38.818Z,13.93
2023-03-21T16:24:12.797Z,15.40
2023-03-21T16:26:58.713Z,15.00
2023-03-21T16:29:28.628Z,16.58
2023-03-21T16:31:58.220Z,16.60
2023-03-21T16:37:27.932Z,19.98
2023-03-21T16:40:03.115Z,16.35
2023-03-21T16:42:31.064Z,21.35
2023-03-21T16:44:59.823Z,19.25
2023-03-21T16:47:35.769Z,15.23
2023-03-21T16:50:10.173Z,17.08
2023-03-21T16:52:40.329Z,13.00
2023-03-21T16:55:09.492Z,16.40
2023-03-21T16:57:39.457Z,19.25
2023-03-21T17:02:56.249Z,16.80
2023-03-21T17:05:34.075Z,18.23
2023-03-21T17:08:03.118Z,18.48
2023-03-21T17:10:52.063Z,14.65
2023-03-21T17:13:22.647Z,18.05
2023-03-21T17:21:19.742Z,20.55
2023-03-21T17:27:00.563Z,17.17
2023-03-21T17:32:16.815Z,21.13
2023-03-21T17:34:50.517Z,16.85
2023-03-21T17:37:18.886Z,19.35
2023-03-21T17:40:15.944Z,19.00
2023-03-21T17:42:48.342Z,17.95
2023-03-21T17:45:19.774Z,18.70
2023-03-21T17:48:04.710Z,18.45
2023-03-21T17:50:40.629Z,22.30
2023-03-21T17:53:08.227Z,21.42
2023-03-21T17:55:45.003Z,19.15
2023-03-21T17:58:14.230Z,20.50
2023-03-21T18:05:09.424Z,17.52
2023-03-21T18:08:08.969Z,19.38
2023-03-21T18:10:13.553Z,23.88
2023-03-21T18:16:02.557Z,20.27
2023-03-21T18:24:58.154Z,22.67
2023-03-21T18:35:25.083Z,22.58
2023-03-21T18:36:49.986Z,24.60
2023-03-21T18:39:23.832Z,22.00
2023-03-21T18:52:10.447Z,23.77
2023-03-21T18:55:05.207Z,27.83
2023-03-21T19:07:41.289Z,25.77
2023-03-21T19:10:30.360Z,29.52
2023-03-21T19:22:21.816Z,24.13
2023-03-21T19:37:56.662Z,28.83
2023-03-21T19:44:12.878Z,24.88
2023-03-21T20:03:02.622Z,30.02
2023-03-21T20:08:13.244Z,32.65
2023-03-21T20:11:00.836Z,31.45
2023-03-21T20:31:45.172Z,34.47
2023-03-21T20:35:02.682Z,33.08
2023-03-21T20:40:46.172Z,34.10
2023-03-21T20:46:15.331Z,33.33
2023-03-21T20:49:06.432Z,32.55
2023-03-21T20:54:49.192Z,33.17
2023-03-21T20:57:34.123Z,34.85
2023-03-21T21:00:15.432Z,33.58
2023-03-21T21:02:56.935Z,31.77
2023-03-21T21:08:10.076Z,33.85
2023-03-21T21:11:19.121Z,34.47
2023-03-21T21:13:34.227Z,43.08
2023-03-21T21:16:03.199Z,35.83
2023-03-21T21:18:37.484Z,37.72
2023-03-21T21:21:36.378Z,36.95
2023-03-21T21:24:27.019Z,33.40
2023-03-21T21:26:57.447Z,34.45
2023-03-21T21:29:25.085Z,38.95
2023-03-21T21:31:53.425Z,35.95
2023-03-21T21:37:05.300Z,34.22
2023-03-21T21:39:35.257Z,35.65
2023-03-21T21:42:02.253Z,37.00
2023-03-21T21:44:33.415Z,37.80
2023-03-21T21:47:12.008Z,38.50
2023-03-21T21:49:40.075Z,36.53
2023-03-21T21:52:09.261Z,38.90
2023-03-21T21:54:41.419Z,35.28
2023-03-21T21:57:09.136Z,37.78
2023-03-21T21:59:45.014Z,35.03
2023-03-21T22:02:17.080Z,36.45
2023-03-21T22:04:45.505Z,33.58
2023-03-21T22:07:43.553Z,32.45
2023-03-21T22:10:11.177Z,36.67
2023-03-21T22:12:41.392Z,39.28
2023-03-21T22:15:09.461Z,40.15
2023-03-21T22:17:37.120Z,38.25
2023-03-21T22:20:13.709Z,33.83
2023-03-21T22:23:00.016Z,43.10
2023-03-21T22:25:28.557Z,42.85
2023-03-21T22:27:55.613Z,39.95
2023-03-21T22:30:27.337Z,40.08
2023-03-21T22:33:08.945Z,41.70
2023-03-21T22:35:37.562Z,39.63
2023-03-21T22:38:05.634Z,43.95
2023-03-21T22:40:32.494Z,44.70
2023-03-21T22:42:59.143Z,50.10
2023-03-21T22:50:55.356Z,49.92
2023-03-21T22:53:24.507Z,42.72
2023-03-21T22:55:54.325Z,45.35
2023-03-21T22:58:22.264Z,41.33
2023-03-21T23:00:53.778Z,39.10
2023-03-21T23:03:21.751Z,48.80
2023-03-21T23:05:48.544Z,41.95
2023-03-21T23:08:18.862Z,40.53
2023-03-21T23:10:50.342Z,47.15
2023-03-21T23:13:19.722Z,43.67
2023-03-21T23:15:51.335Z,44.92
2023-03-21T23:18:21.254Z,42.78
2023-03-21T23:20:49.778Z,43.85
2023-03-21T23:23:16.747Z,40.28
2023-03-21T23:25:43.702Z,44.13
2023-03-21T23:28:13.702Z,48.40
2023-03-21T23:30:44.441Z,44.03
2023-03-21T23:33:11.661Z,45.58
2023-03-21T23:35:42.422Z,48.67
2023-03-21T23:38:12.922Z,47.50
2023-03-21T23:40:41.068Z,49.42
2023-03-21T23:43:08.279Z,48.38
2023-03-21T23:45:37.267Z,49.72
2023-03-21T23:48:06.493Z,50.08
2023-03-21T23:50:35.068Z,51.70
2023-03-21T23:55:48.891Z,52.35
2023-03-21T23:58:20.903Z,52.53
